Time;durP1;ratioP1;P1;durP2;ratioP2;P2;SDS_P1;SDS_P2;PMS_P1;PMS_P2;Temp;Humidity;BMP_temperature;BMP_pressure;BME280_temperature;BME280_humidity;BME280_pressure;Samples;Min_cycle;Max_cycle;Signal;HPM_P1;HPM_P2
2023/07/13 00:01:52;;;;;;;4.57;1.88;;;19.60;99.90;;;;;;5080072;28;20046;-71
2023/07/13 00:04:20;;;;;;;4.35;1.73;;;19.60;99.90;;;;;;5081263;28;20024;-71
2023/07/13 00:06:47;;;;;;;5.72;2.38;;;19.50;99.90;;;;;;5086919;28;20075;-71
2023/07/13 00:09:14;;;;;;;3.80;1.60;;;19.50;99.90;;;;;;5090540;28;20016;-72
2023/07/13 00:11:40;;;;;;;6.63;1.90;;;19.50;99.90;;;;;;5084421;28;20361;-71
2023/07/13 00:14:07;;;;;;;8.23;2.08;;;19.50;99.90;;;;;;5081887;28;20031;-71
2023/07/13 00:16:35;;;;;;;5.93;1.65;;;19.50;99.90;;;;;;5084953;28;20016;-72
2023/07/13 00:19:01;;;;;;;4.60;2.08;;;19.50;99.90;;;;;;5079737;28;20046;-70
2023/07/13 00:21:27;;;;;;;6.88;1.83;;;19.50;99.90;;;;;;5081961;28;20469;-71
2023/07/13 00:23:53;;;;;;;7.40;2.22;;;19.50;99.90;;;;;;5088212;28;20035;-71
2023/07/13 00:26:18;;;;;;;6.13;2.03;;;19.50;99.90;;;;;;5081996;28;20052;-71
2023/07/13 00:28:44;;;;;;;4.20;1.83;;;19.50;99.90;;;;;;5081167;28;20035;-71
2023/07/13 00:31:12;;;;;;;7.93;2.25;;;19.40;99.90;;;;;;5080274;28;20070;-71
2023/07/13 00:33:37;;;;;;;4.45;2.00;;;19.40;99.90;;;;;;5083694;28;20073;-71
2023/07/13 00:36:04;;;;;;;5.55;1.58;;;19.30;99.90;;;;;;5082107;28;20021;-71
2023/07/13 00:38:30;;;;;;;7.35;2.33;;;19.30;99.90;;;;;;5090136;28;20029;-71
2023/07/13 00:40:55;;;;;;;7.03;1.98;;;19.30;99.90;;;;;;5085961;28;20031;-71
2023/07/13 00:43:23;;;;;;;5.00;1.95;;;19.20;99.90;;;;;;5088622;28;20122;-71
2023/07/13 00:45:49;;;;;;;7.93;1.70;;;19.20;99.90;;;;;;5081355;28;20031;-71
2023/07/13 00:48:20;;;;;;;4.28;1.73;;;19.20;99.90;;;;;;5085842;28;20070;-71
2023/07/13 00:50:53;;;;;;;4.38;2.33;;;19.20;99.90;;;;;;5080359;28;20412;-71
2023/07/13 00:53:20;;;;;;;6.60;1.90;;;19.20;99.90;;;;;;5082937;28;20048;-71
2023/07/13 00:55:48;;;;;;;7.22;1.63;;;19.20;99.90;;;;;;5089986;28;20108;-71
2023/07/13 00:58:15;;;;;;;5.53;2.10;;;19.20;99.90;;;;;;5078540;28;20034;-72
2023/07/13 01:00:41;;;;;;;6.55;2.00;;;19.10;99.90;;;;;;5082131;28;20036;-71
2023/07/13 01:03:08;;;;;;;7.13;1.60;;;19.20;99.90;;;;;;5086183;28;20028;-71
2023/07/13 01:05:34;;;;;;;7.70;2.08;;;19.20;99.90;;;;;;5090341;28;20483;-71
2023/07/13 01:08:02;;;;;;;5.13;1.77;;;19.10;99.90;;;;;;5082130;28;20021;-71
2023/07/13 01:10:27;;;;;;;9.50;1.83;;;19.10;99.90;;;;;;5079804;28;20503;-72
2023/07/13 01:12:54;;;;;;;6.95;2.33;;;19.10;99.90;;;;;;5080777;28;20024;-71
2023/07/13 01:15:45;;;;;;;5.07;1.90;;;19.10;99.90;;;;;;5086643;28;20082;-71
2023/07/13 01:18:25;;;;;;;3.50;1.95;;;19.10;99.90;;;;;;5081536;28;20381;-71
2023/07/13 01:20:55;;;;;;;8.50;2.03;;;19.10;99.90;;;;;;5082438;28;20016;-71
2023/07/13 01:23:22;;;;;;;7.72;2.33;;;19.00;99.90;;;;;;5080440;28;20043;-71
2023/07/13 01:25:47;;;;;;;2.67;1.52;;;19.00;99.90;;;;;;5081338;28;20028;-71
2023/07/13 01:28:13;;;;;;;5.80;2.22;;;19.00;99.90;;;;;;5086589;28;20102;-71
2023/07/13 01:30:40;;;;;;;6.97;2.22;;;18.90;99.90;;;;;;5088885;28;20473;-72
2023/07/13 01:33:08;;;;;;;5.20;1.70;;;18.80;99.90;;;;;;5076341;28;20036;-71
2023/07/13 01:35:33;;;;;;;7.32;2.10;;;18.80;99.90;;;;;;5082173;28;20423;-71
2023/07/13 01:38:01;;;;;;;7.00;1.95;;;18.80;99.90;;;;;;5089783;28;20028;-71
2023/07/13 01:40:27;;;;;;;8.18;2.00;;;18.80;99.90;;;;;;5088661;28;20098;-71
2023/07/13 01:42:52;;;;;;;10.23;2.40;;;18.80;99.90;;;;;;5085919;28;20487;-71
2023/07/13 01:45:18;;;;;;;4.22;1.92;;;18.80;99.90;;;;;;5080915;28;20045;-72
2023/07/13 01:47:44;;;;;;;6.25;1.92;;;18.80;99.90;;;;;;5087072;28;20043;-71
2023/07/13 01:50:10;;;;;;;8.30;2.38;;;18.80;99.90;;;;;;5087344;28;20473;-71
2023/07/13 01:52:36;;;;;;;7.15;2.30;;;18.80;99.90;;;;;;5081061;28;20024;-71
2023/07/13 01:55:02;;;;;;;5.15;2.45;;;18.80;99.90;;;;;;5078495;28;20020;-71
2023/07/13 01:57:28;;;;;;;8.00;2.00;;;18.70;99.90;;;;;;5079363;28;20025;-71
2023/07/13 01:59:54;;;;;;;7.30;2.20;;;18.70;99.90;;;;;;5083248;28;20036;-71
2023/07/13 02:02:19;;;;;;;10.02;1.95;;;18.70;99.90;;;;;;5078387;28;20021;-71
2023/07/13 02:04:45;;;;;;;8.30;2.10;;;18.60;99.90;;;;;;5079056;28;20032;-71
2023/07/13 02:07:11;;;;;;;4.55;2.22;;;18.50;99.90;;;;;;5080437;28;20051;-71
2023/07/13 02:09:37;;;;;;;5.53;2.47;;;18.40;99.90;;;;;;5092347;28;20020;-71
2023/07/13 02:12:03;;;;;;;6.75;2.50;;;18.50;99.90;;;;;;5084600;28;20036;-71
2023/07/13 02:14:28;;;;;;;5.18;2.45;;;18.50;99.90;;;;;;5083225;28;20031;-71
2023/07/13 02:16:54;;;;;;;8.85;2.17;;;18.60;99.90;;;;;;5079997;28;20032;-71
2023/07/13 02:19:20;;;;;;;10.90;2.97;;;18.50;99.90;;;;;;5077270;28;20496;-71
2023/07/13 02:21:45;;;;;;;9.57;2.45;;;18.60;99.90;;;;;;5079394;28;20174;-71
2023/07/13 02:24:17;;;;;;;9.75;2.40;;;18.50;99.90;;;;;;5083204;28;20035;-71
2023/07/13 02:26:43;;;;;;;6.25;2.22;;;18.50;99.90;;;;;;5078405;28;20055;-71
2023/07/13 02:29:09;;;;;;;6.82;2.20;;;18.50;99.90;;;;;;5078865;28;20480;-71
2023/07/13 02:31:35;;;;;;;5.80;1.90;;;18.50;99.90;;;;;;5074996;28;20039;-71
2023/07/13 02:34:02;;;;;;;7.07;2.70;;;18.50;99.90;;;;;;5077470;28;20024;-71
2023/07/13 02:36:28;;;;;;;7.13;2.33;;;18.50;99.90;;;;;;5075908;28;20031;-71
2023/07/13 02:38:54;;;;;;;5.75;2.10;;;18.30;99.90;;;;;;5083389;28;20024;-71
2023/07/13 02:41:19;;;;;;;7.43;2.72;;;18.30;99.90;;;;;;5088893;28;20028;-71
2023/07/13 02:43:45;;;;;;;8.48;2.53;;;18.30;99.90;;;;;;5084041;28;20378;-71
2023/07/13 02:46:11;;;;;;;6.90;2.50;;;18.20;99.90;;;;;;5087810;28;20366;-71
2023/07/13 02:48:38;;;;;;;6.47;2.55;;;18.30;99.90;;;;;;5086658;28;20480;-71
2023/07/13 02:51:04;;;;;;;4.80;2.22;;;18.30;99.90;;;;;;5084920;28;20032;-71
2023/07/13 02:53:30;;;;;;;4.82;2.22;;;18.20;99.90;;;;;;5084903;28;20020;-71
2023/07/13 02:55:56;;;;;;;6.32;2.40;;;18.30;99.90;;;;;;5084833;28;20038;-71
2023/07/13 02:58:22;;;;;;;7.05;2.28;;;18.30;99.90;;;;;;5082265;28;20047;-71
2023/07/13 03:00:49;;;;;;;7.47;2.47;;;18.30;99.90;;;;;;5083426;28;20024;-71
2023/07/13 03:03:16;;;;;;;11.02;3.00;;;18.30;99.90;;;;;;5085363;28;20416;-71
2023/07/13 03:05:44;;;;;;;13.32;2.33;;;18.30;99.90;;;;;;5085669;28;20043;-71
2023/07/13 03:08:11;;;;;;;8.23;2.20;;;18.20;99.90;;;;;;5088871;28;20040;-71
2023/07/13 03:10:37;;;;;;;10.52;2.97;;;18.10;99.90;;;;;;5088460;28;20134;-71
2023/07/13 03:13:03;;;;;;;8.43;2.58;;;18.10;99.90;;;;;;5083823;28;20021;-71
2023/07/13 03:15:28;;;;;;;11.43;3.38;;;18.20;99.90;;;;;;5084747;28;20405;-71
2023/07/13 03:17:54;;;;;;;6.88;2.42;;;18.20;99.90;;;;;;5083996;28;20024;-71
2023/07/13 03:20:20;;;;;;;8.52;2.83;;;18.20;99.90;;;;;;5083203;28;20033;-71
2023/07/13 03:22:46;;;;;;;10.45;2.67;;;18.20;99.90;;;;;;5086475;28;20021;-71
2023/07/13 03:25:11;;;;;;;7.53;2.67;;;18.20;99.90;;;;;;5081737;28;20028;-71
2023/07/13 03:27:38;;;;;;;6.70;2.42;;;18.10;99.90;;;;;;5082338;28;20119;-71
2023/07/13 03:30:06;;;;;;;8.35;3.38;;;18.10;99.90;;;;;;5080898;28;20469;-71
2023/07/13 03:32:32;;;;;;;8.50;2.65;;;18.00;99.90;;;;;;5086870;28;20032;-71
2023/07/13 03:34:57;;;;;;;7.38;2.80;;;18.10;99.90;;;;;;5055888;28;20110;-71
2023/07/13 03:37:23;;;;;;;8.20;2.70;;;18.00;99.90;;;;;;5090252;28;20026;-71
2023/07/13 03:39:49;;;;;;;10.25;3.63;;;18.00;99.90;;;;;;5104456;28;20026;-71
2023/07/13 03:42:15;;;;;;;14.32;3.33;;;18.10;99.90;;;;;;5103136;28;20028;-70
2023/07/13 03:44:41;;;;;;;14.70;3.28;;;18.00;99.90;;;;;;5091566;28;20075;-71
2023/07/13 03:47:08;;;;;;;12.40;3.85;;;18.00;99.90;;;;;;5101000;28;20063;-71
2023/07/13 03:49:34;;;;;;;20.88;4.00;;;18.00;99.90;;;;;;5095371;28;20026;-71
2023/07/13 03:52:00;;;;;;;7.38;3.03;;;18.00;99.90;;;;;;5097035;28;20044;-71
2023/07/13 03:54:26;;;;;;;11.57;3.25;;;18.00;99.90;;;;;;5096399;28;21428;-71
2023/07/13 03:56:51;;;;;;;14.80;3.90;;;18.00;99.90;;;;;;5102518;28;20042;-71
2023/07/13 03:59:17;;;;;;;10.52;3.50;;;18.00;99.90;;;;;;5101854;28;20054;-71
2023/07/13 04:01:44;;;;;;;13.00;3.83;;;18.00;99.90;;;;;;5101864;28;20042;-71
2023/07/13 04:04:09;;;;;;;13.48;4.13;;;18.00;99.90;;;;;;5092202;28;20024;-71
2023/07/13 04:06:35;;;;;;;15.55;3.88;;;18.00;99.90;;;;;;5098248;28;20772;-71
2023/07/13 04:09:05;;;;;;;13.38;4.15;;;18.00;99.90;;;;;;5105776;28;20027;-71
2023/07/13 04:11:31;;;;;;;11.63;3.10;;;18.10;99.90;;;;;;5098970;28;20028;-71
2023/07/13 04:13:57;;;;;;;8.38;3.17;;;18.10;99.90;;;;;;5099287;28;20043;-71
2023/07/13 04:16:23;;;;;;;6.97;3.08;;;18.10;99.90;;;;;;5102690;28;20549;-71
2023/07/13 04:18:50;;;;;;;11.57;3.30;;;18.10;99.90;;;;;;5100638;28;20480;-71
2023/07/13 04:21:16;;;;;;;13.40;3.30;;;18.10;99.90;;;;;;5100277;28;20094;-71
2023/07/13 04:23:42;;;;;;;10.57;3.30;;;18.10;99.90;;;;;;5091747;28;20354;-71
2023/07/13 04:26:08;;;;;;;11.10;3.15;;;18.20;99.90;;;;;;5095935;28;20031;-71
2023/07/13 04:28:34;;;;;;;9.02;2.95;;;18.20;99.90;;;;;;5103652;28;20035;-71
2023/07/13 04:31:00;;;;;;;8.77;3.45;;;18.20;99.90;;;;;;5090978;28;20057;-71
2023/07/13 04:33:27;;;;;;;9.35;3.55;;;18.20;99.90;;;;;;5100955;28;20102;-71
2023/07/13 04:35:56;;;;;;;11.43;3.60;;;18.20;99.90;;;;;;5096697;28;20535;-71
2023/07/13 04:38:28;;;;;;;12.18;4.00;;;18.20;99.90;;;;;;5090497;28;20020;-71
2023/07/13 04:41:00;;;;;;;9.45;3.67;;;18.30;99.90;;;;;;5098962;28;20020;-71
2023/07/13 04:43:27;;;;;;;13.63;3.70;;;18.20;99.90;;;;;;5099434;28;21154;-71
2023/07/13 04:45:53;;;;;;;13.63;3.45;;;18.20;99.90;;;;;;5092266;28;20019;-71
2023/07/13 04:48:19;;;;;;;8.07;3.10;;;18.30;99.90;;;;;;5096098;28;20044;-71
2023/07/13 04:50:46;;;;;;;13.20;3.60;;;18.40;99.90;;;;;;5101498;28;20027;-71
2023/07/13 04:53:12;;;;;;;10.27;3.75;;;18.40;99.90;;;;;;5098925;28;20051;-71
2023/07/13 04:55:37;;;;;;;13.27;3.97;;;18.40;99.90;;;;;;5098869;28;20046;-71
2023/07/13 04:58:04;;;;;;;15.30;4.47;;;18.40;99.90;;;;;;5097650;28;20476;-71
2023/07/13 05:00:30;;;;;;;12.60;4.07;;;18.40;99.90;;;;;;5091495;28;20020;-71
2023/07/13 05:02:57;;;;;;;13.07;3.70;;;18.40;99.90;;;;;;5097408;28;20042;-71
2023/07/13 05:05:25;;;;;;;14.75;3.92;;;18.40;99.90;;;;;;5100421;28;20074;-71
2023/07/13 05:07:51;;;;;;;10.07;4.50;;;18.30;99.90;;;;;;5089120;28;20032;-70
2023/07/13 05:10:16;;;;;;;13.30;4.20;;;18.30;99.90;;;;;;5099468;28;20594;-70
2023/07/13 05:12:42;;;;;;;12.35;4.80;;;18.30;99.90;;;;;;5091617;28;20019;-71
2023/07/13 05:15:08;;;;;;;14.18;4.03;;;18.40;99.90;;;;;;5094854;28;20023;-71
2023/07/13 05:17:34;;;;;;;14.77;4.05;;;18.40;99.90;;;;;;5099561;28;20028;-71
2023/07/13 05:20:00;;;;;;;15.85;4.20;;;18.50;99.90;;;;;;5098361;28;20126;-71
2023/07/13 05:22:25;;;;;;;15.27;4.00;;;18.60;99.90;;;;;;5087091;28;20115;-71
2023/07/13 05:24:51;;;;;;;14.75;4.10;;;18.60;99.90;;;;;;5095266;28;20294;-71
2023/07/13 05:27:16;;;;;;;12.93;4.28;;;18.50;99.90;;;;;;5091228;28;20044;-71
2023/07/13 05:29:42;;;;;;;10.13;3.50;;;18.60;99.90;;;;;;5098327;28;20108;-71
2023/07/13 05:32:08;;;;;;;10.18;3.28;;;18.70;99.90;;;;;;5091414;28;20156;-71
2023/07/13 05:34:33;;;;;;;14.30;4.00;;;18.70;99.90;;;;;;5096485;28;20548;-71
2023/07/13 05:36:59;;;;;;;11.88;3.65;;;18.70;99.90;;;;;;5099597;28;20031;-72
2023/07/13 05:39:26;;;;;;;11.52;3.85;;;18.70;99.90;;;;;;5101239;28;20734;-71
2023/07/13 05:41:51;;;;;;;13.18;3.38;;;18.80;99.90;;;;;;5101106;28;20118;-71
2023/07/13 05:44:18;;;;;;;12.38;3.75;;;18.80;99.90;;;;;;5087452;28;20102;-71
2023/07/13 05:46:44;;;;;;;16.85;4.25;;;18.90;99.90;;;;;;5102103;28;20043;-71
2023/07/13 05:49:10;;;;;;;9.13;3.35;;;18.90;99.90;;;;;;5100565;28;20028;-71
2023/07/13 05:51:35;;;;;;;14.43;4.28;;;19.00;99.90;;;;;;5099072;28;20376;-70
2023/07/13 05:54:01;;;;;;;18.35;4.70;;;18.90;99.90;;;;;;5099069;28;20073;-71
2023/07/13 05:56:26;;;;;;;9.38;4.00;;;18.90;99.90;;;;;;5087393;28;20031;-71
2023/07/13 05:58:52;;;;;;;12.57;4.22;;;19.00;99.90;;;;;;5097150;28;20471;-71
2023/07/13 06:01:20;;;;;;;16.75;4.28;;;18.90;99.90;;;;;;5099271;28;20090;-71
2023/07/13 06:03:46;;;;;;;15.73;4.60;;;19.00;99.90;;;;;;5086691;28;20499;-70
2023/07/13 06:06:11;;;;;;;12.98;4.70;;;19.00;99.90;;;;;;5091869;28;20040;-71
2023/07/13 06:08:38;;;;;;;16.13;4.75;;;19.00;99.90;;;;;;5094405;28;20502;-71
2023/07/13 06:11:24;;;;;;;20.08;5.30;;;19.10;99.90;;;;;;5088426;28;20423;-71
2023/07/13 06:13:50;;;;;;;14.85;4.57;;;19.10;99.90;;;;;;5093763;28;20925;-71
2023/07/13 06:16:17;;;;;;;18.48;4.88;;;19.10;99.90;;;;;;5088212;28;20031;-71
2023/07/13 06:18:43;;;;;;;16.33;5.35;;;19.20;99.90;;;;;;5094141;28;20068;-71
2023/07/13 06:21:20;;;;;;;26.08;6.00;;;19.20;99.90;;;;;;5094497;28;20043;-71
2023/07/13 06:23:50;;;;;;;17.50;6.30;;;19.30;99.90;;;;;;5093758;28;20015;-71
2023/07/13 06:26:17;;;;;;;24.05;6.55;;;19.20;99.90;;;;;;5096556;28;20036;-71
2023/07/13 06:28:43;;;;;;;34.47;7.07;;;19.30;99.90;;;;;;5087481;28;20637;-71
2023/07/13 06:31:11;;;;;;;19.48;5.82;;;19.40;99.90;;;;;;5098668;28;20008;-71
2023/07/13 06:33:37;;;;;;;22.02;5.90;;;19.40;99.90;;;;;;5098385;28;20078;-71
2023/07/13 06:36:04;;;;;;;20.10;5.60;;;19.50;99.90;;;;;;5095352;28;20466;-71
2023/07/13 06:38:30;;;;;;;20.17;6.05;;;19.50;99.90;;;;;;5097586;28;20512;-72
2023/07/13 06:40:56;;;;;;;25.38;6.85;;;19.40;99.90;;;;;;5087355;28;20026;-72
2023/07/13 06:43:22;;;;;;;19.33;6.15;;;19.40;99.90;;;;;;5099000;28;20028;-72
2023/07/13 06:45:49;;;;;;;25.52;6.93;;;19.50;99.90;;;;;;5099130;28;20024;-72
2023/07/13 06:48:16;;;;;;;19.33;5.78;;;19.50;99.90;;;;;;5099839;28;20031;-71
2023/07/13 06:50:42;;;;;;;23.80;6.22;;;19.60;99.90;;;;;;5088845;28;20016;-72
2023/07/13 06:53:09;;;;;;;18.25;5.47;;;19.60;99.90;;;;;;5097033;28;20031;-71
2023/07/13 06:55:35;;;;;;;18.42;6.20;;;19.70;99.90;;;;;;5090250;28;20099;-73
2023/07/13 06:58:00;;;;;;;20.35;5.72;;;19.60;99.90;;;;;;5096373;28;20115;-72
2023/07/13 07:00:26;;;;;;;24.40;6.40;;;19.80;99.90;;;;;;5099010;28;20417;-72
2023/07/13 07:02:52;;;;;;;16.95;6.07;;;19.80;99.90;;;;;;5101826;28;20443;-72
2023/07/13 07:05:17;;;;;;;26.88;5.82;;;19.80;99.90;;;;;;5091735;28;20501;-72
2023/07/13 07:07:43;;;;;;;19.85;5.63;;;19.80;99.90;;;;;;5092502;28;20468;-72
2023/07/13 07:10:09;;;;;;;16.67;5.68;;;19.70;99.90;;;;;;5098145;28;20028;-71
2023/07/13 07:12:34;;;;;;;18.95;5.45;;;19.90;99.90;;;;;;5100186;28;20499;-72
2023/07/13 07:15:00;;;;;;;18.55;5.93;;;19.90;99.90;;;;;;5101355;28;20099;-72
2023/07/13 07:17:26;;;;;;;18.67;5.65;;;19.80;99.90;;;;;;5093267;28;20422;-72
2023/07/13 07:19:53;;;;;;;14.90;5.72;;;19.60;99.90;;;;;;5096760;28;20029;-72
2023/07/13 07:22:20;;;;;;;17.13;5.68;;;19.60;99.90;;;;;;5091519;28;20063;-72
2023/07/13 07:24:46;;;;;;;14.02;5.15;;;19.80;99.90;;;;;;5097021;28;20040;-71
2023/07/13 07:27:11;;;;;;;21.75;6.78;;;19.90;99.90;;;;;;5103742;28;20039;-71
2023/07/13 07:29:37;;;;;;;17.45;5.80;;;19.90;99.90;;;;;;5102438;28;20027;-71
2023/07/13 07:32:03;;;;;;;15.45;5.32;;;19.90;99.90;;;;;;5100748;28;20414;-70
2023/07/13 07:34:30;;;;;;;17.27;5.40;;;20.10;99.90;;;;;;5097329;28;20577;-72
2023/07/13 07:37:00;;;;;;;18.08;5.28;;;20.20;99.90;;;;;;5093550;28;20545;-71
2023/07/13 07:39:26;;;;;;;14.57;4.80;;;20.40;99.90;;;;;;5100471;28;20024;-72
2023/07/13 07:41:52;;;;;;;13.00;5.03;;;20.40;99.90;;;;;;5099456;28;20027;-72
2023/07/13 07:44:18;;;;;;;17.83;5.80;;;20.40;99.90;;;;;;5101182;28;20492;-71
2023/07/13 07:46:43;;;;;;;15.73;5.22;;;20.40;99.90;;;;;;5103175;28;20036;-72
2023/07/13 07:49:09;;;;;;;16.70;5.18;;;20.30;99.90;;;;;;5105689;28;20023;-72
2023/07/13 07:51:35;;;;;;;17.58;5.57;;;20.40;99.90;;;;;;5092207;28;20020;-72
2023/07/13 07:54:00;;;;;;;15.18;5.40;;;20.40;99.90;;;;;;5098730;28;20019;-73
2023/07/13 07:56:26;;;;;;;11.40;4.43;;;20.50;99.90;;;;;;5092232;28;20028;-73
2023/07/13 07:58:51;;;;;;;16.77;5.25;;;20.70;99.90;;;;;;5099989;28;20380;-73
2023/07/13 08:01:17;;;;;;;13.82;5.40;;;20.70;99.90;;;;;;5101809;28;20107;-72
2023/07/13 08:03:43;;;;;;;13.73;4.85;;;20.80;99.90;;;;;;5101861;28;20475;-71
2023/07/13 08:06:08;;;;;;;14.20;4.88;;;20.80;99.90;;;;;;5095214;28;21511;-71
2023/07/13 08:08:35;;;;;;;12.52;4.35;;;20.90;99.90;;;;;;5100985;28;20484;-70
2023/07/13 08:11:05;;;;;;;17.50;5.45;;;21.00;99.90;;;;;;5100604;28;20425;-70
2023/07/13 08:13:31;;;;;;;14.73;5.32;;;20.90;99.90;;;;;;5091380;28;20039;-72
2023/07/13 08:15:57;;;;;;;15.52;4.68;;;21.00;99.90;;;;;;5099397;28;20245;-70
2023/07/13 08:18:22;;;;;;;15.57;4.80;;;21.10;99.90;;;;;;5091557;28;20076;-70
2023/07/13 08:20:48;;;;;;;11.10;4.60;;;21.10;99.90;;;;;;5099278;28;20016;-69
2023/07/13 08:23:14;;;;;;;13.57;5.00;;;21.30;99.90;;;;;;5093741;28;20039;-70
2023/07/13 08:25:39;;;;;;;16.55;5.28;;;21.50;99.90;;;;;;5102821;28;20491;-70
2023/07/13 08:28:05;;;;;;;11.38;4.55;;;21.50;99.90;;;;;;5091695;28;20027;-71
2023/07/13 08:30:31;;;;;;;12.80;4.50;;;21.70;99.90;;;;;;5096713;28;20020;-70
2023/07/13 08:32:57;;;;;;;13.05;3.72;;;21.60;99.90;;;;;;5092634;28;20468;-71
2023/07/13 08:35:23;;;;;;;12.70;3.92;;;21.50;99.90;;;;;;5094809;28;20020;-71
2023/07/13 08:37:48;;;;;;;14.60;4.80;;;21.60;99.90;;;;;;5095659;28;20044;-70
2023/07/13 08:40:14;;;;;;;12.38;4.00;;;21.60;99.90;;;;;;5100220;28;20023;-71
2023/07/13 08:42:46;;;;;;;14.02;4.15;;;21.60;99.90;;;;;;5103405;28;20042;-72
2023/07/13 08:45:25;;;;;;;13.35;4.13;;;21.60;99.90;;;;;;5096584;28;20024;-72
2023/07/13 08:48:01;;;;;;;11.48;4.15;;;21.50;99.90;;;;;;5095141;28;20039;-70
2023/07/13 08:50:35;;;;;;;11.75;4.57;;;21.50;99.90;;;;;;5099952;28;20369;-75
2023/07/13 08:53:03;;;;;;;12.55;4.18;;;21.60;99.90;;;;;;5097920;28;20063;-70
2023/07/13 08:55:37;;;;;;;12.27;4.07;;;21.50;99.90;;;;;;5099865;28;20031;-70
2023/07/13 08:58:16;;;;;;;10.75;4.35;;;21.50;99.90;;;;;;5102224;28;20046;-71
2023/07/13 09:00:41;;;;;;;11.52;4.43;;;21.60;99.90;;;;;;5099503;28;20030;-70
2023/07/13 09:03:20;;;;;;;14.07;4.72;;;21.50;99.90;;;;;;5100959;28;20028;-70
2023/07/13 09:05:52;;;;;;;15.48;4.55;;;21.60;99.90;;;;;;5092922;28;20039;-70
2023/07/13 09:08:46;;;;;;;9.73;3.97;;;21.70;99.90;;;;;;5090761;28;20036;-71
2023/07/13 09:11:28;;;;;;;12.60;4.38;;;22.00;99.90;;;;;;5091314;28;20051;-72
2023/07/13 09:14:22;;;;;;;13.70;3.90;;;22.10;99.90;;;;;;5095046;28;20089;-71
2023/07/13 09:16:49;;;;;;;13.35;4.30;;;22.50;99.90;;;;;;5099941;28;20023;-72
2023/07/13 09:19:23;;;;;;;12.43;4.05;;;22.90;99.90;;;;;;5090683;28;20149;-72
2023/07/13 09:21:50;;;;;;;13.05;3.42;;;23.00;99.90;;;;;;5099145;28;20355;-72
2023/07/13 09:24:28;;;;;;;12.90;4.30;;;22.90;99.90;;;;;;5098913;28;20032;-72
2023/07/13 09:26:55;;;;;;;12.25;3.80;;;22.50;99.90;;;;;;5099377;28;20250;-71
2023/07/13 09:29:28;;;;;;;10.00;4.00;;;22.60;99.90;;;;;;5099402;28;20383;-72
2023/07/13 09:31:58;;;;;;;9.55;4.00;;;22.80;99.90;;;;;;5098749;28;20156;-72
2023/07/13 09:34:25;;;;;;;9.13;3.47;;;22.50;99.90;;;;;;5096854;28;20031;-71
2023/07/13 09:36:51;;;;;;;6.80;2.83;;;22.60;99.90;;;;;;5095895;28;20099;-71
2023/07/13 09:39:52;;;;;;;15.27;4.55;;;23.00;99.90;;;;;;5101173;28;20725;-70
2023/07/13 09:42:21;;;;;;;9.80;3.20;;;23.20;99.90;;;;;;5078918;28;20047;-72
2023/07/13 09:44:56;;;;;;;8.52;2.88;;;23.60;99.90;;;;;;5092864;28;20516;-71
2023/07/13 09:47:29;;;;;;;8.40;3.17;;;23.50;99.90;;;;;;5099447;28;20500;-70
2023/07/13 09:50:00;;;;;;;4.18;2.70;;;23.50;99.90;;;;;;5091142;28;20077;-69
2023/07/13 09:52:27;;;;;;;7.47;3.00;;;23.40;99.90;;;;;;5097043;28;20488;-70
2023/07/13 09:54:59;;;;;;;7.78;3.10;;;23.40;99.90;;;;;;5099032;28;20107;-70
2023/07/13 09:57:27;;;;;;;6.63;3.35;;;23.50;99.90;;;;;;5090765;28;20012;-70
2023/07/13 09:59:56;;;;;;;9.60;3.05;;;24.00;99.90;;;;;;5095605;28;20036;-71
2023/07/13 10:02:33;;;;;;;8.65;3.35;;;24.30;99.90;;;;;;5095604;28;20019;-71
2023/07/13 10:05:13;;;;;;;13.05;2.97;;;24.10;99.90;;;;;;5099444;28;20028;-70
2023/07/13 10:07:44;;;;;;;8.77;3.05;;;24.00;99.90;;;;;;5100082;28;20114;-71
2023/07/13 10:10:20;;;;;;;10.55;2.90;;;23.90;99.90;;;;;;5088968;28;20047;-70
2023/07/13 10:12:47;;;;;;;4.70;2.75;;;24.10;99.90;;;;;;5097211;28;20035;-72
2023/07/13 10:15:25;;;;;;;7.25;3.42;;;23.90;99.90;;;;;;5096384;28;20099;-72
2023/07/13 10:17:58;;;;;;;6.35;2.78;;;23.70;99.90;;;;;;5099980;28;20016;-72
2023/07/13 10:20:25;;;;;;;9.25;2.67;;;23.60;99.90;;;;;;5096926;28;20487;-70
2023/07/13 10:22:56;;;;;;;6.45;2.80;;;23.60;99.90;;;;;;5099091;28;20040;-71
2023/07/13 10:25:25;;;;;;;12.85;3.35;;;24.00;99.90;;;;;;5098695;28;20563;-70
2023/07/13 10:27:54;;;;;;;9.23;3.05;;;23.90;99.90;;;;;;5089007;28;20039;-73
2023/07/13 10:30:34;;;;;;;7.38;3.03;;;23.80;99.90;;;;;;5095412;28;20016;-71
2023/07/13 10:33:02;;;;;;;9.35;2.58;;;23.40;99.90;;;;;;5090199;28;20068;-69
2023/07/13 10:35:30;;;;;;;9.30;2.95;;;23.10;99.90;;;;;;5093788;28;20035;-69
2023/07/13 10:38:06;;;;;;;3.75;2.30;;;23.20;99.90;;;;;;5099329;28;20027;-71
2023/07/13 10:40:47;;;;;;;7.45;2.95;;;23.70;99.90;;;;;;5097660;28;20076;-71
2023/07/13 10:43:30;;;;;;;5.07;2.17;;;24.10;99.90;;;;;;5086258;28;20036;-70
2023/07/13 10:45:56;;;;;;;8.13;2.50;;;24.40;99.90;;;;;;5095830;28;20028;-71
2023/07/13 10:48:23;;;;;;;8.43;2.67;;;24.20;99.90;;;;;;5090195;28;20062;-71
2023/07/13 10:50:55;;;;;;;10.60;3.20;;;24.00;99.90;;;;;;5097674;28;20035;-69
2023/07/13 10:53:33;;;;;;;12.52;3.97;;;23.90;99.90;;;;;;5100940;28;20053;-69
2023/07/13 10:56:05;;;;;;;7.80;3.28;;;23.70;99.90;;;;;;5086669;28;20028;-70
2023/07/13 10:58:33;;;;;;;;;;;23.50;99.90;;;;;;5098789;28;20524;-71
2023/07/13 11:01:13;;;;;;;11.43;3.92;;;23.50;99.90;;;;;;5100433;28;20617;-71
2023/07/13 11:04:02;;;;;;;10.98;3.42;;;23.80;99.90;;;;;;5103071;28;20129;-71
2023/07/13 11:06:31;;;;;;;6.38;3.30;;;24.00;99.90;;;;;;5101877;28;20065;-71
2023/07/13 11:08:59;;;;;;;9.23;3.72;;;24.20;99.90;;;;;;5106629;28;20032;-71
2023/07/13 11:11:32;;;;;;;8.45;3.13;;;24.10;99.90;;;;;;5102004;28;20081;-70
2023/07/13 11:14:25;;;;;;;4.35;3.20;;;23.90;99.90;;;;;;5100901;28;20024;-71
2023/07/13 11:16:51;;;;;;;6.80;2.83;;;23.80;99.90;;;;;;5091973;28;20104;-70
2023/07/13 11:19:16;;;;;;;8.00;3.03;;;23.60;99.90;;;;;;5098865;28;20534;-71
2023/07/13 11:22:16;;;;;;;8.63;2.85;;;23.40;99.90;;;;;;5102588;28;20422;-72
2023/07/13 11:25:20;;;;;;;7.32;3.10;;;23.40;99.90;;;;;;5079026;28;20083;-70
2023/07/13 11:27:51;;;;;;;9.68;3.28;;;23.40;99.90;;;;;;5098560;28;20480;-71
2023/07/13 11:30:25;;;;;;;12.95;3.95;;;23.50;99.90;;;;;;5094412;28;21098;-71
2023/07/13 11:33:10;;;;;;;7.60;3.03;;;23.50;99.90;;;;;;5095331;28;20085;-71
2023/07/13 11:35:38;;;;;;;9.85;3.30;;;23.40;99.90;;;;;;5093296;28;20024;-70
2023/07/13 11:38:15;;;;;;;6.55;3.30;;;23.30;99.90;;;;;;5101025;28;20015;-72
2023/07/13 11:40:43;;;;;;;5.63;3.33;;;23.30;99.90;;;;;;5103874;28;20028;-71
2023/07/13 11:43:14;;;;;;;8.63;3.08;;;23.20;99.90;;;;;;5091872;28;20125;-70
2023/07/13 11:45:40;;;;;;;9.80;3.23;;;23.20;99.90;;;;;;5098393;28;20039;-72
2023/07/13 11:48:21;;;;;;;7.63;2.83;;;23.30;99.90;;;;;;5096694;28;20051;-70
2023/07/13 11:51:01;;;;;;;10.65;2.53;;;23.30;99.90;;;;;;5099056;28;20022;-71
2023/07/13 11:53:30;;;;;;;6.03;3.00;;;23.50;99.90;;;;;;5102036;28;20051;-72
2023/07/13 11:55:58;;;;;;;7.80;3.22;;;23.50;99.90;;;;;;5101341;28;20019;-73
2023/07/13 11:58:25;;;;;;;4.50;2.33;;;23.60;99.90;;;;;;5102695;27;20495;-72
2023/07/13 12:00:54;;;;;;;6.00;2.60;;;23.60;99.90;;;;;;5103100;28;20475;-70
2023/07/13 12:03:24;;;;;;;8.90;2.45;;;23.40;99.90;;;;;;5103702;28;20031;-71
2023/07/13 12:06:16;;;;;;;5.55;2.60;;;23.40;99.90;;;;;;5100217;28;20059;-71
2023/07/13 12:08:42;;;;;;;8.52;3.15;;;23.50;99.90;;;;;;5096383;28;20142;-70
2023/07/13 12:11:16;;;;;;;6.80;2.60;;;23.60;99.90;;;;;;5095978;28;20121;-70
2023/07/13 12:13:44;;;;;;;6.68;2.70;;;23.70;99.90;;;;;;5101612;28;20023;-70
2023/07/13 12:16:32;;;;;;;7.18;2.30;;;23.70;99.90;;;;;;5100745;28;20041;-70
2023/07/13 12:19:00;;;;;;;4.90;2.72;;;23.80;99.90;;;;;;5095767;28;20035;-71
2023/07/13 12:21:38;;;;;;;8.07;2.58;;;23.90;99.90;;;;;;5098603;28;20470;-70
2023/07/13 12:24:11;;;;;;;5.45;2.72;;;23.90;99.90;;;;;;5098292;28;20112;-70
2023/07/13 12:26:37;;;;;;;8.85;3.05;;;24.10;99.90;;;;;;5101566;28;20015;-70
2023/07/13 12:29:06;;;;;;;8.05;2.78;;;24.30;99.90;;;;;;5101773;28;20101;-71
2023/07/13 12:31:40;;;;;;;5.55;2.40;;;24.50;99.90;;;;;;5099193;28;20073;-71
2023/07/13 12:34:15;;;;;;;4.68;2.55;;;24.40;99.90;;;;;;5095103;28;20020;-71
2023/07/13 12:36:50;;;;;;;6.10;2.53;;;24.30;99.90;;;;;;5091569;28;20099;-75
2023/07/13 12:39:18;;;;;;;6.38;2.47;;;24.30;99.90;;;;;;5089966;28;20486;-70
2023/07/13 12:41:45;;;;;;;5.22;2.33;;;24.20;99.90;;;;;;5089601;28;20471;-70
2023/07/13 12:44:25;;;;;;;7.75;2.55;;;24.10;99.90;;;;;;5095945;28;20120;-70
2023/07/13 12:47:04;;;;;;;7.30;2.30;;;24.10;99.90;;;;;;5091442;28;20023;-70
2023/07/13 12:49:34;;;;;;;6.75;2.53;;;24.10;99.90;;;;;;5099494;28;20031;-71
2023/07/13 12:52:03;;;;;;;7.97;2.97;;;24.00;99.90;;;;;;5099221;28;20372;-73